sensor_id;sensor_type;location;lat;lon;timestamp;temperature;humidity
28175;SHT30;59417;44.788;10.334;2022-12-07T00:02:05;7.98;82.10
28175;SHT30;59417;44.788;10.334;2022-12-07T00:04:30;7.97;81.76
28175;SHT30;59417;44.788;10.334;2022-12-07T00:06:56;7.97;82.00
28175;SHT30;59417;44.788;10.334;2022-12-07T00:09:22;8.08;81.10
28175;SHT30;59417;44.788;10.334;2022-12-07T00:11:50;8.00;81.14
28175;SHT30;59417;44.788;10.334;2022-12-07T00:14:16;7.91;81.67
28175;SHT30;59417;44.788;10.334;2022-12-07T00:16:44;7.91;81.94
28175;SHT30;59417;44.788;10.334;2022-12-07T00:19:12;7.98;81.19
28175;SHT30;59417;44.788;10.334;2022-12-07T00:21:39;8.05;80.91
28175;SHT30;59417;44.788;10.334;2022-12-07T00:24:05;7.90;81.74
28175;SHT30;59417;44.788;10.334;2022-12-07T00:26:38;7.76;82.36
28175;SHT30;59417;44.788;10.334;2022-12-07T00:29:24;7.83;82.93
28175;SHT30;59417;44.788;10.334;2022-12-07T00:31:50;7.91;82.76
28175;SHT30;59417;44.788;10.334;2022-12-07T00:34:19;8.05;81.48
28175;SHT30;59417;44.788;10.334;2022-12-07T00:36:45;8.10;80.81
28175;SHT30;59417;44.788;10.334;2022-12-07T00:39:14;7.97;80.90
28175;SHT30;59417;44.788;10.334;2022-12-07T00:41:40;7.77;81.89
28175;SHT30;59417;44.788;10.334;2022-12-07T00:44:05;7.86;81.28
28175;SHT30;59417;44.788;10.334;2022-12-07T00:46:31;7.86;81.27
28175;SHT30;59417;44.788;10.334;2022-12-07T00:48:58;7.73;81.99
28175;SHT30;59417;44.788;10.334;2022-12-07T00:51:25;7.67;82.51
28175;SHT30;59417;44.788;10.334;2022-12-07T00:53:51;7.76;82.41
28175;SHT30;59417;44.788;10.334;2022-12-07T00:56:22;7.91;81.71
28175;SHT30;59417;44.788;10.334;2022-12-07T00:59:00;8.05;80.78
28175;SHT30;59417;44.788;10.334;2022-12-07T01:01:31;7.84;81.25
28175;SHT30;59417;44.788;10.334;2022-12-07T01:03:58;7.73;82.10
28175;SHT30;59417;44.788;10.334;2022-12-07T01:06:26;7.64;82.56
28175;SHT30;59417;44.788;10.334;2022-12-07T01:08:54;7.68;82.39
28175;SHT30;59417;44.788;10.334;2022-12-07T01:11:25;7.81;81.76
28175;SHT30;59417;44.788;10.334;2022-12-07T01:13:55;7.68;81.77
28175;SHT30;59417;44.788;10.334;2022-12-07T01:16:21;7.59;82.28
28175;SHT30;59417;44.788;10.334;2022-12-07T01:18:51;7.64;82.42
28175;SHT30;59417;44.788;10.334;2022-12-07T01:21:29;7.70;81.80
28175;SHT30;59417;44.788;10.334;2022-12-07T01:24:02;7.70;81.85
28175;SHT30;59417;44.788;10.334;2022-12-07T01:26:30;7.68;81.46
28175;SHT30;59417;44.788;10.334;2022-12-07T01:28:56;7.66;82.06
28175;SHT30;59417;44.788;10.334;2022-12-07T01:31:27;7.70;81.65
28175;SHT30;59417;44.788;10.334;2022-12-07T01:33:59;7.70;81.41
28175;SHT30;59417;44.788;10.334;2022-12-07T01:36:34;7.71;81.60
28175;SHT30;59417;44.788;10.334;2022-12-07T01:39:03;7.68;81.72
28175;SHT30;59417;44.788;10.334;2022-12-07T01:41:35;7.57;82.12
28175;SHT30;59417;44.788;10.334;2022-12-07T01:44:27;7.71;81.98
28175;SHT30;59417;44.788;10.334;2022-12-07T01:47:03;7.74;81.60
28175;SHT30;59417;44.788;10.334;2022-12-07T01:49:39;7.68;82.41
28175;SHT30;59417;44.788;10.334;2022-12-07T01:54:46;7.57;82.62
28175;SHT30;59417;44.788;10.334;2022-12-07T01:57:14;7.53;83.19
28175;SHT30;59417;44.788;10.334;2022-12-07T01:59:43;7.49;83.66
28175;SHT30;59417;44.788;10.334;2022-12-07T02:02:18;7.46;83.99
28175;SHT30;59417;44.788;10.334;2022-12-07T02:04:49;7.50;83.74
28175;SHT30;59417;44.788;10.334;2022-12-07T02:07:16;7.64;82.90
28175;SHT30;59417;44.788;10.334;2022-12-07T02:09:43;7.57;82.58
28175;SHT30;59417;44.788;10.334;2022-12-07T02:12:09;7.59;82.91
28175;SHT30;59417;44.788;10.334;2022-12-07T02:14:35;7.63;83.38
28175;SHT30;59417;44.788;10.334;2022-12-07T02:27:44;7.32;84.50
28175;SHT30;59417;44.788;10.334;2022-12-07T02:30:17;7.37;84.27
28175;SHT30;59417;44.788;10.334;2022-12-07T02:33:11;7.36;84.14
28175;SHT30;59417;44.788;10.334;2022-12-07T02:35:46;7.42;83.75
28175;SHT30;59417;44.788;10.334;2022-12-07T02:41:16;7.37;83.77
28175;SHT30;59417;44.788;10.334;2022-12-07T02:43:50;7.30;84.40
28175;SHT30;59417;44.788;10.334;2022-12-07T02:46:40;7.37;83.87
28175;SHT30;59417;44.788;10.334;2022-12-07T02:49:09;7.39;83.75
28175;SHT30;59417;44.788;10.334;2022-12-07T02:51:40;7.39;83.57
28175;SHT30;59417;44.788;10.334;2022-12-07T02:54:18;7.26;84.28
28175;SHT30;59417;44.788;10.334;2022-12-07T03:13:35;7.25;84.27
28175;SHT30;59417;44.788;10.334;2022-12-07T03:16:20;7.14;84.58
28175;SHT30;59417;44.788;10.334;2022-12-07T03:21:27;7.08;85.17
28175;SHT30;59417;44.788;10.334;2022-12-07T03:23:58;7.05;85.15
28175;SHT30;59417;44.788;10.334;2022-12-07T03:26:32;7.01;85.37
28175;SHT30;59417;44.788;10.334;2022-12-07T03:29:05;7.09;85.17
28175;SHT30;59417;44.788;10.334;2022-12-07T03:31:36;7.04;85.22
28175;SHT30;59417;44.788;10.334;2022-12-07T03:34:11;7.06;84.92
28175;SHT30;59417;44.788;10.334;2022-12-07T03:36:45;7.06;84.90
28175;SHT30;59417;44.788;10.334;2022-12-07T03:41:54;7.25;84.26
28175;SHT30;59417;44.788;10.334;2022-12-07T03:44:21;7.22;84.23
28175;SHT30;59417;44.788;10.334;2022-12-07T03:49:37;7.11;85.00
28175;SHT30;59417;44.788;10.334;2022-12-07T03:52:25;7.04;85.15
28175;SHT30;59417;44.788;10.334;2022-12-07T03:55:12;7.01;85.10
28175;SHT30;59417;44.788;10.334;2022-12-07T03:57:41;6.89;85.85
28175;SHT30;59417;44.788;10.334;2022-12-07T04:00:10;6.92;85.92
28175;SHT30;59417;44.788;10.334;2022-12-07T04:02:39;6.92;86.05
28175;SHT30;59417;44.788;10.334;2022-12-07T04:05:07;7.01;85.74
28175;SHT30;59417;44.788;10.334;2022-12-07T04:07:33;7.16;85.03
28175;SHT30;59417;44.788;10.334;2022-12-07T04:09:58;7.18;84.78
28175;SHT30;59417;44.788;10.334;2022-12-07T04:12:24;7.19;84.68
28175;SHT30;59417;44.788;10.334;2022-12-07T04:14:50;7.27;84.21
28175;SHT30;59417;44.788;10.334;2022-12-07T04:17:16;7.23;84.24
28175;SHT30;59417;44.788;10.334;2022-12-07T04:19:42;7.20;84.43
28175;SHT30;59417;44.788;10.334;2022-12-07T04:22:09;7.16;84.47
28175;SHT30;59417;44.788;10.334;2022-12-07T04:24:35;7.08;84.77
28175;SHT30;59417;44.788;10.334;2022-12-07T04:27:01;7.11;84.33
28175;SHT30;59417;44.788;10.334;2022-12-07T04:29:27;6.99;84.76
28175;SHT30;59417;44.788;10.334;2022-12-07T04:31:53;6.94;85.19
28175;SHT30;59417;44.788;10.334;2022-12-07T04:34:19;6.81;85.73
28175;SHT30;59417;44.788;10.334;2022-12-07T04:36:46;6.81;85.28
28175;SHT30;59417;44.788;10.334;2022-12-07T04:39:26;6.75;85.99
28175;SHT30;59417;44.788;10.334;2022-12-07T04:41:53;6.71;86.52
28175;SHT30;59417;44.788;10.334;2022-12-07T04:44:20;6.73;85.58
28175;SHT30;59417;44.788;10.334;2022-12-07T04:46:47;6.75;85.41
28175;SHT30;59417;44.788;10.334;2022-12-07T04:49:14;6.82;85.50
28175;SHT30;59417;44.788;10.334;2022-12-07T04:51:40;6.88;84.73
28175;SHT30;59417;44.788;10.334;2022-12-07T04:54:06;6.84;85.10
28175;SHT30;59417;44.788;10.334;2022-12-07T04:56:35;6.87;84.61
28175;SHT30;59417;44.788;10.334;2022-12-07T04:59:02;6.82;84.45
28175;SHT30;59417;44.788;10.334;2022-12-07T05:01:28;6.74;84.18
28175;SHT30;59417;44.788;10.334;2022-12-07T05:03:54;6.68;84.03
28175;SHT30;59417;44.788;10.334;2022-12-07T05:06:20;6.67;84.26
28175;SHT30;59417;44.788;10.334;2022-12-07T05:08:46;6.64;84.01
28175;SHT30;59417;44.788;10.334;2022-12-07T05:11:12;6.58;84.19
28175;SHT30;59417;44.788;10.334;2022-12-07T05:13:58;6.55;84.39
28175;SHT30;59417;44.788;10.334;2022-12-07T05:16:24;6.55;84.72
28175;SHT30;59417;44.788;10.334;2022-12-07T05:18:50;6.53;84.38
28175;SHT30;59417;44.788;10.334;2022-12-07T05:21:16;6.54;84.40
28175;SHT30;59417;44.788;10.334;2022-12-07T05:23:42;6.51;84.27
28175;SHT30;59417;44.788;10.334;2022-12-07T05:26:08;6.50;84.19
28175;SHT30;59417;44.788;10.334;2022-12-07T05:28:34;6.48;83.79
28175;SHT30;59417;44.788;10.334;2022-12-07T05:31:00;6.50;83.63
28175;SHT30;59417;44.788;10.334;2022-12-07T05:33:26;6.48;83.64
28175;SHT30;59417;44.788;10.334;2022-12-07T05:35:52;6.43;83.71
28175;SHT30;59417;44.788;10.334;2022-12-07T05:38:18;6.20;84.61
28175;SHT30;59417;44.788;10.334;2022-12-07T05:40:45;6.31;84.47
28175;SHT30;59417;44.788;10.334;2022-12-07T05:43:10;6.29;84.31
28175;SHT30;59417;44.788;10.334;2022-12-07T05:45:37;6.37;83.92
28175;SHT30;59417;44.788;10.334;2022-12-07T05:48:04;6.36;83.94
28175;SHT30;59417;44.788;10.334;2022-12-07T05:50:30;6.27;84.52
28175;SHT30;59417;44.788;10.334;2022-12-07T05:53:02;6.30;84.14
28175;SHT30;59417;44.788;10.334;2022-12-07T05:55:28;6.37;84.07
28175;SHT30;59417;44.788;10.334;2022-12-07T05:57:55;6.09;84.91
28175;SHT30;59417;44.788;10.334;2022-12-07T06:00:39;5.95;85.22
28175;SHT30;59417;44.788;10.334;2022-12-07T06:03:05;5.88;85.61
28175;SHT30;59417;44.788;10.334;2022-12-07T06:05:31;5.83;86.34
28175;SHT30;59417;44.788;10.334;2022-12-07T06:07:57;5.82;86.00
28175;SHT30;59417;44.788;10.334;2022-12-07T06:10:27;5.83;85.95
28175;SHT30;59417;44.788;10.334;2022-12-07T06:12:55;5.83;86.32
28175;SHT30;59417;44.788;10.334;2022-12-07T06:15:28;5.83;85.58
28175;SHT30;59417;44.788;10.334;2022-12-07T06:17:55;5.71;85.44
28175;SHT30;59417;44.788;10.334;2022-12-07T06:20:23;5.69;86.32
28175;SHT30;59417;44.788;10.334;2022-12-07T06:22:49;5.54;86.11
28175;SHT30;59417;44.788;10.334;2022-12-07T06:25:14;5.48;86.63
28175;SHT30;59417;44.788;10.334;2022-12-07T06:27:40;5.44;86.09
28175;SHT30;59417;44.788;10.334;2022-12-07T06:30:07;5.44;86.44
28175;SHT30;59417;44.788;10.334;2022-12-07T06:32:35;5.54;86.42
28175;SHT30;59417;44.788;10.334;2022-12-07T06:35:01;5.52;85.61
28175;SHT30;59417;44.788;10.334;2022-12-07T06:37:27;5.65;86.75
28175;SHT30;59417;44.788;10.334;2022-12-07T06:39:53;5.65;86.08
28175;SHT30;59417;44.788;10.334;2022-12-07T06:42:18;5.55;85.37
28175;SHT30;59417;44.788;10.334;2022-12-07T06:44:44;5.47;85.43
28175;SHT30;59417;44.788;10.334;2022-12-07T06:47:10;5.48;85.37
28175;SHT30;59417;44.788;10.334;2022-12-07T06:49:36;5.59;84.57
28175;SHT30;59417;44.788;10.334;2022-12-07T06:52:03;5.30;84.74
28175;SHT30;59417;44.788;10.334;2022-12-07T06:54:30;5.23;84.92
28175;SHT30;59417;44.788;10.334;2022-12-07T06:56:57;5.08;84.75
28175;SHT30;59417;44.788;10.334;2022-12-07T06:59:23;5.06;85.06
28175;SHT30;59417;44.788;10.334;2022-12-07T07:01:49;5.00;85.27
28175;SHT30;59417;44.788;10.334;2022-12-07T07:04:15;5.00;85.64
28175;SHT30;59417;44.788;10.334;2022-12-07T07:06:40;5.01;85.45
28175;SHT30;59417;44.788;10.334;2022-12-07T07:09:07;5.06;85.44
28175;SHT30;59417;44.788;10.334;2022-12-07T07:11:46;5.07;85.11
28175;SHT30;59417;44.788;10.334;2022-12-07T07:14:12;5.14;85.03
28175;SHT30;59417;44.788;10.334;2022-12-07T07:16:38;5.11;84.77
28175;SHT30;59417;44.788;10.334;2022-12-07T07:19:04;5.08;84.93
28175;SHT30;59417;44.788;10.334;2022-12-07T07:21:30;5.04;85.29
28175;SHT30;59417;44.788;10.334;2022-12-07T07:23:56;5.10;84.96
28175;SHT30;59417;44.788;10.334;2022-12-07T07:26:24;5.13;84.64
28175;SHT30;59417;44.788;10.334;2022-12-07T07:28:53;5.06;85.20
28175;SHT30;59417;44.788;10.334;2022-12-07T07:31:19;5.00;85.51
28175;SHT30;59417;44.788;10.334;2022-12-07T07:34:13;4.86;85.57
28175;SHT30;59417;44.788;10.334;2022-12-07T07:36:38;4.96;85.76
28175;SHT30;59417;44.788;10.334;2022-12-07T07:39:05;4.93;85.78
28175;SHT30;59417;44.788;10.334;2022-12-07T07:41:34;5.01;86.18
28175;SHT30;59417;44.788;10.334;2022-12-07T07:44:17;5.14;85.86
28175;SHT30;59417;44.788;10.334;2022-12-07T07:46:43;5.27;84.82
28175;SHT30;59417;44.788;10.334;2022-12-07T07:49:09;5.32;84.66
28175;SHT30;59417;44.788;10.334;2022-12-07T07:51:35;5.31;85.03
28175;SHT30;59417;44.788;10.334;2022-12-07T07:54:02;5.38;85.19
28175;SHT30;59417;44.788;10.334;2022-12-07T07:56:30;5.35;85.02
28175;SHT30;59417;44.788;10.334;2022-12-07T07:58:56;5.38;85.03
28175;SHT30;59417;44.788;10.334;2022-12-07T08:01:22;5.42;84.75
28175;SHT30;59417;44.788;10.334;2022-12-07T08:03:48;5.59;84.62
28175;SHT30;59417;44.788;10.334;2022-12-07T08:06:15;5.65;84.50
28175;SHT30;59417;44.788;10.334;2022-12-07T08:08:42;5.74;84.04
28175;SHT30;59417;44.788;10.334;2022-12-07T08:11:09;5.78;83.78
28175;SHT30;59417;44.788;10.334;2022-12-07T08:13:39;5.82;83.85
28175;SHT30;59417;44.788;10.334;2022-12-07T08:16:10;5.85;83.10
28175;SHT30;59417;44.788;10.334;2022-12-07T08:18:37;5.79;83.71
28175;SHT30;59417;44.788;10.334;2022-12-07T08:21:03;5.83;83.73
28175;SHT30;59417;44.788;10.334;2022-12-07T08:23:29;5.89;82.83
28175;SHT30;59417;44.788;10.334;2022-12-07T08:26:06;5.75;83.22
28175;SHT30;59417;44.788;10.334;2022-12-07T08:28:32;5.74;83.82
28175;SHT30;59417;44.788;10.334;2022-12-07T08:31:02;5.88;83.64
28175;SHT30;59417;44.788;10.334;2022-12-07T08:33:29;5.89;82.87
28175;SHT30;59417;44.788;10.334;2022-12-07T08:35:55;5.92;83.65
28175;SHT30;59417;44.788;10.334;2022-12-07T08:38:25;5.99;83.52
28175;SHT30;59417;44.788;10.334;2022-12-07T08:40:56;5.99;82.78
28175;SHT30;59417;44.788;10.334;2022-12-07T08:43:23;5.95;82.32
28175;SHT30;59417;44.788;10.334;2022-12-07T08:45:58;5.85;82.84
28175;SHT30;59417;44.788;10.334;2022-12-07T08:48:28;5.75;82.90
28175;SHT30;59417;44.788;10.334;2022-12-07T08:50:54;5.65;83.79
28175;SHT30;59417;44.788;10.334;2022-12-07T08:53:20;5.71;83.89
28175;SHT30;59417;44.788;10.334;2022-12-07T08:55:46;5.67;83.89
28175;SHT30;59417;44.788;10.334;2022-12-07T08:58:13;5.59;84.27
28175;SHT30;59417;44.788;10.334;2022-12-07T09:00:39;5.74;84.04
28175;SHT30;59417;44.788;10.334;2022-12-07T09:03:05;5.72;83.87
28175;SHT30;59417;44.788;10.334;2022-12-07T09:05:32;5.75;84.00
28175;SHT30;59417;44.788;10.334;2022-12-07T09:08:00;5.74;84.21
28175;SHT30;59417;44.788;10.334;2022-12-07T09:10:29;5.71;84.32
28175;SHT30;59417;44.788;10.334;2022-12-07T09:12:56;5.78;84.04
28175;SHT30;59417;44.788;10.334;2022-12-07T09:15:28;5.72;84.37
28175;SHT30;59417;44.788;10.334;2022-12-07T09:17:56;5.78;84.22
28175;SHT30;59417;44.788;10.334;2022-12-07T09:20:22;5.78;83.91
28175;SHT30;59417;44.788;10.334;2022-12-07T09:22:52;5.81;84.37
28175;SHT30;59417;44.788;10.334;2022-12-07T09:25:19;5.83;83.90
28175;SHT30;59417;44.788;10.334;2022-12-07T09:27:45;5.74;84.57
28175;SHT30;59417;44.788;10.334;2022-12-07T09:30:11;5.55;85.11
28175;SHT30;59417;44.788;10.334;2022-12-07T09:32:37;5.57;85.70
28175;SHT30;59417;44.788;10.334;2022-12-07T09:35:03;5.55;85.46
28175;SHT30;59417;44.788;10.334;2022-12-07T09:37:28;5.52;85.00
28175;SHT30;59417;44.788;10.334;2022-12-07T09:39:54;5.59;85.03
28175;SHT30;59417;44.788;10.334;2022-12-07T09:42:36;5.58;85.27
28175;SHT30;59417;44.788;10.334;2022-12-07T09:45:06;5.69;84.84
28175;SHT30;59417;44.788;10.334;2022-12-07T09:47:33;5.77;85.72
28175;SHT30;59417;44.788;10.334;2022-12-07T09:50:12;5.74;84.87
28175;SHT30;59417;44.788;10.334;2022-12-07T09:52:39;5.68;85.11
28175;SHT30;59417;44.788;10.334;2022-12-07T09:55:11;5.68;84.98
28175;SHT30;59417;44.788;10.334;2022-12-07T09:57:38;5.62;84.88
28175;SHT30;59417;44.788;10.334;2022-12-07T10:00:16;5.61;85.35
28175;SHT30;59417;44.788;10.334;2022-12-07T10:02:46;5.59;85.63
28175;SHT30;59417;44.788;10.334;2022-12-07T10:05:16;5.77;86.27
28175;SHT30;59417;44.788;10.334;2022-12-07T10:07:44;5.81;84.55
28175;SHT30;59417;44.788;10.334;2022-12-07T10:10:16;5.86;84.93
28175;SHT30;59417;44.788;10.334;2022-12-07T10:13:07;5.89;84.60
28175;SHT30;59417;44.788;10.334;2022-12-07T10:18:20;6.03;84.75
28175;SHT30;59417;44.788;10.334;2022-12-07T10:20:47;5.85;84.30
28175;SHT30;59417;44.788;10.334;2022-12-07T10:23:26;5.93;84.35
28175;SHT30;59417;44.788;10.334;2022-12-07T10:25:52;6.03;84.80
28175;SHT30;59417;44.788;10.334;2022-12-07T10:28:34;5.90;83.92
28175;SHT30;59417;44.788;10.334;2022-12-07T10:31:03;5.98;83.89
28175;SHT30;59417;44.788;10.334;2022-12-07T10:34:00;5.79;84.53
28175;SHT30;59417;44.788;10.334;2022-12-07T10:39:11;6.03;83.76
28175;SHT30;59417;44.788;10.334;2022-12-07T10:42:02;6.00;83.11
28175;SHT30;59417;44.788;10.334;2022-12-07T10:44:30;6.05;83.39
28175;SHT30;59417;44.788;10.334;2022-12-07T10:59:08;6.13;83.39
28175;SHT30;59417;44.788;10.334;2022-12-07T11:10:15;6.27;82.73
28175;SHT30;59417;44.788;10.334;2022-12-07T11:21:00;6.31;82.86
28175;SHT30;59417;44.788;10.334;2022-12-07T11:24:14;6.53;82.74
28175;SHT30;59417;44.788;10.334;2022-12-07T11:38:19;6.50;83.44
28175;SHT30;59417;44.788;10.334;2022-12-07T11:40:54;6.65;82.89
28175;SHT30;59417;44.788;10.334;2022-12-07T11:43:27;6.87;83.11
28175;SHT30;59417;44.788;10.334;2022-12-07T11:46:03;6.96;82.59
28175;SHT30;59417;44.788;10.334;2022-12-07T11:48:50;6.84;82.74
28175;SHT30;59417;44.788;10.334;2022-12-07T11:51:20;6.84;82.52
28175;SHT30;59417;44.788;10.334;2022-12-07T11:53:59;6.84;81.76
28175;SHT30;59417;44.788;10.334;2022-12-07T11:56:29;6.78;82.80
28175;SHT30;59417;44.788;10.334;2022-12-07T11:59:17;6.60;83.47
28175;SHT30;59417;44.788;10.334;2022-12-07T12:01:56;6.65;83.48
28175;SHT30;59417;44.788;10.334;2022-12-07T12:04:47;6.89;83.38
28175;SHT30;59417;44.788;10.334;2022-12-07T12:07:23;7.14;82.08
28175;SHT30;59417;44.788;10.334;2022-12-07T12:09:56;6.89;81.95
28175;SHT30;59417;44.788;10.334;2022-12-07T12:16:37;6.67;83.32
28175;SHT30;59417;44.788;10.334;2022-12-07T12:19:02;6.53;82.91
28175;SHT30;59417;44.788;10.334;2022-12-07T12:21:32;6.53;84.04
28175;SHT30;59417;44.788;10.334;2022-12-07T12:24:02;6.44;84.08
28175;SHT30;59417;44.788;10.334;2022-12-07T12:26:32;6.33;84.50
28175;SHT30;59417;44.788;10.334;2022-12-07T12:29:50;6.17;83.89
28175;SHT30;59417;44.788;10.334;2022-12-07T12:32:24;5.68;86.02
28175;SHT30;59417;44.788;10.334;2022-12-07T12:37:53;5.57;86.83
28175;SHT30;59417;44.788;10.334;2022-12-07T12:54:29;5.92;85.70
28175;SHT30;59417;44.788;10.334;2022-12-07T12:59:23;5.79;87.06
28175;SHT30;59417;44.788;10.334;2022-12-07T13:01:52;6.00;86.16
28175;SHT30;59417;44.788;10.334;2022-12-07T13:04:30;5.86;85.48
28175;SHT30;59417;44.788;10.334;2022-12-07T13:07:03;5.68;86.18
28175;SHT30;59417;44.788;10.334;2022-12-07T13:09:32;5.82;86.17
28175;SHT30;59417;44.788;10.334;2022-12-07T13:12:19;5.58;86.68
28175;SHT30;59417;44.788;10.334;2022-12-07T13:14:54;5.52;86.89
28175;SHT30;59417;44.788;10.334;2022-12-07T13:20:07;5.55;87.17
28175;SHT30;59417;44.788;10.334;2022-12-07T13:27:59;5.61;86.99
28175;SHT30;59417;44.788;10.334;2022-12-07T13:30:28;5.52;87.18
28175;SHT30;59417;44.788;10.334;2022-12-07T13:32:57;5.57;87.57
28175;SHT30;59417;44.788;10.334;2022-12-07T13:35:32;5.75;87.41
28175;SHT30;59417;44.788;10.334;2022-12-07T13:38:14;5.75;87.85
28175;SHT30;59417;44.788;10.334;2022-12-07T13:40:41;5.74;86.74
28175;SHT30;59417;44.788;10.334;2022-12-07T13:43:14;5.82;87.27
28175;SHT30;59417;44.788;10.334;2022-12-07T13:45:41;5.96;86.84
28175;SHT30;59417;44.788;10.334;2022-12-07T13:50:55;5.93;86.42
28175;SHT30;59417;44.788;10.334;2022-12-07T13:53:22;5.99;86.12
28175;SHT30;59417;44.788;10.334;2022-12-07T13:55:48;5.90;86.27
28175;SHT30;59417;44.788;10.334;2022-12-07T13:58:14;5.85;86.96
28175;SHT30;59417;44.788;10.334;2022-12-07T14:00:41;5.98;86.38
28175;SHT30;59417;44.788;10.334;2022-12-07T14:05:41;5.93;86.41
28175;SHT30;59417;44.788;10.334;2022-12-07T14:16:36;5.83;87.68
28175;SHT30;59417;44.788;10.334;2022-12-07T14:19:40;5.95;86.40
28175;SHT30;59417;44.788;10.334;2022-12-07T14:22:08;5.79;86.52
28175;SHT30;59417;44.788;10.334;2022-12-07T14:24:44;5.74;86.57
28175;SHT30;59417;44.788;10.334;2022-12-07T14:27:21;5.75;86.93
28175;SHT30;59417;44.788;10.334;2022-12-07T14:30:03;5.89;86.53
28175;SHT30;59417;44.788;10.334;2022-12-07T14:32:30;5.90;86.67
28175;SHT30;59417;44.788;10.334;2022-12-07T14:35:11;5.92;86.23
28175;SHT30;59417;44.788;10.334;2022-12-07T14:37:38;5.82;86.18
28175;SHT30;59417;44.788;10.334;2022-12-07T14:40:13;5.48;87.11
28175;SHT30;59417;44.788;10.334;2022-12-07T14:42:41;5.47;87.17
28175;SHT30;59417;44.788;10.334;2022-12-07T14:45:21;5.55;86.83
28175;SHT30;59417;44.788;10.334;2022-12-07T14:47:47;5.48;87.10
28175;SHT30;59417;44.788;10.334;2022-12-07T14:50:17;5.49;86.96
28175;SHT30;59417;44.788;10.334;2022-12-07T14:53:04;5.54;86.57
28175;SHT30;59417;44.788;10.334;2022-12-07T14:55:33;5.55;87.05
28175;SHT30;59417;44.788;10.334;2022-12-07T14:58:00;5.58;87.22
28175;SHT30;59417;44.788;10.334;2022-12-07T15:00:27;5.71;86.72
28175;SHT30;59417;44.788;10.334;2022-12-07T15:02:56;5.79;85.87
28175;SHT30;59417;44.788;10.334;2022-12-07T15:05:23;5.69;86.10
28175;SHT30;59417;44.788;10.334;2022-12-07T15:07:50;5.64;86.74
28175;SHT30;59417;44.788;10.334;2022-12-07T15:10:24;5.62;87.30
28175;SHT30;59417;44.788;10.334;2022-12-07T15:12:55;5.64;87.47
28175;SHT30;59417;44.788;10.334;2022-12-07T15:15:41;5.72;86.69
28175;SHT30;59417;44.788;10.334;2022-12-07T15:18:13;5.92;85.52
28175;SHT30;59417;44.788;10.334;2022-12-07T15:20:39;5.89;85.62
28175;SHT30;59417;44.788;10.334;2022-12-07T15:23:05;5.85;86.48
28175;SHT30;59417;44.788;10.334;2022-12-07T15:25:31;5.93;85.70
28175;SHT30;59417;44.788;10.334;2022-12-07T15:27:58;5.93;85.36
28175;SHT30;59417;44.788;10.334;2022-12-07T15:30:27;5.86;85.57
28175;SHT30;59417;44.788;10.334;2022-12-07T15:32:53;5.77;86.72
28175;SHT30;59417;44.788;10.334;2022-12-07T15:35:44;5.82;86.54
28175;SHT30;59417;44.788;10.334;2022-12-07T15:38:14;5.93;85.52
28175;SHT30;59417;44.788;10.334;2022-12-07T15:40:40;5.86;86.00
28175;SHT30;59417;44.788;10.334;2022-12-07T15:43:09;5.81;86.56
28175;SHT30;59417;44.788;10.334;2022-12-07T15:45:55;5.98;85.71
28175;SHT30;59417;44.788;10.334;2022-12-07T15:48:27;5.95;85.61
28175;SHT30;59417;44.788;10.334;2022-12-07T15:50:53;5.89;85.93
28175;SHT30;59417;44.788;10.334;2022-12-07T15:53:19;5.85;86.04
28175;SHT30;59417;44.788;10.334;2022-12-07T15:55:45;5.83;85.86
28175;SHT30;59417;44.788;10.334;2022-12-07T15:58:12;5.75;86.06
28175;SHT30;59417;44.788;10.334;2022-12-07T16:00:37;5.58;86.39
28175;SHT30;59417;44.788;10.334;2022-12-07T16:03:08;5.59;86.38
28175;SHT30;59417;44.788;10.334;2022-12-07T16:05:34;5.59;86.42
28175;SHT30;59417;44.788;10.334;2022-12-07T16:08:01;5.51;86.77
28175;SHT30;59417;44.788;10.334;2022-12-07T16:10:27;5.47;86.75
28175;SHT30;59417;44.788;10.334;2022-12-07T16:12:53;5.42;86.93
28175;SHT30;59417;44.788;10.334;2022-12-07T16:15:19;5.48;86.53
28175;SHT30;59417;44.788;10.334;2022-12-07T16:17:45;5.44;86.48
28175;SHT30;59417;44.788;10.334;2022-12-07T16:20:11;5.39;86.55
28175;SHT30;59417;44.788;10.334;2022-12-07T16:22:37;5.48;86.41
28175;SHT30;59417;44.788;10.334;2022-12-07T16:25:03;5.39;86.70
28175;SHT30;59417;44.788;10.334;2022-12-07T16:27:33;5.49;86.87
28175;SHT30;59417;44.788;10.334;2022-12-07T16:30:02;5.48;87.09
28175;SHT30;59417;44.788;10.334;2022-12-07T16:32:30;5.55;86.39
28175;SHT30;59417;44.788;10.334;2022-12-07T16:34:56;5.37;86.68
28175;SHT30;59417;44.788;10.334;2022-12-07T16:37:22;5.26;87.32
28175;SHT30;59417;44.788;10.334;2022-12-07T16:39:48;5.32;87.02
28175;SHT30;59417;44.788;10.334;2022-12-07T16:42:14;5.20;87.05
28175;SHT30;59417;44.788;10.334;2022-12-07T16:44:40;5.06;87.19
28175;SHT30;59417;44.788;10.334;2022-12-07T16:47:06;4.89;87.74
28175;SHT30;59417;44.788;10.334;2022-12-07T16:49:32;5.01;87.59
28175;SHT30;59417;44.788;10.334;2022-12-07T16:51:58;4.96;87.43
28175;SHT30;59417;44.788;10.334;2022-12-07T16:54:26;5.04;87.63
28175;SHT30;59417;44.788;10.334;2022-12-07T16:56:56;5.07;87.65
28175;SHT30;59417;44.788;10.334;2022-12-07T16:59:22;5.14;87.85
28175;SHT30;59417;44.788;10.334;2022-12-07T17:01:50;5.34;87.17
28175;SHT30;59417;44.788;10.334;2022-12-07T17:06:48;5.11;87.20
28175;SHT30;59417;44.788;10.334;2022-12-07T17:09:14;5.14;87.79
28175;SHT30;59417;44.788;10.334;2022-12-07T17:11:43;5.21;87.87
28175;SHT30;59417;44.788;10.334;2022-12-07T17:14:10;5.38;86.69
28175;SHT30;59417;44.788;10.334;2022-12-07T17:16:55;5.39;86.65
28175;SHT30;59417;44.788;10.334;2022-12-07T17:19:26;5.24;87.15
28175;SHT30;59417;44.788;10.334;2022-12-07T17:21:53;5.24;87.09
28175;SHT30;59417;44.788;10.334;2022-12-07T17:24:20;5.28;87.30
28175;SHT30;59417;44.788;10.334;2022-12-07T17:26:47;5.32;86.97
28175;SHT30;59417;44.788;10.334;2022-12-07T17:29:26;5.42;86.93
28175;SHT30;59417;44.788;10.334;2022-12-07T17:31:52;5.49;86.72
28175;SHT30;59417;44.788;10.334;2022-12-07T17:34:18;5.62;85.82
28175;SHT30;59417;44.788;10.334;2022-12-07T17:36:48;5.62;86.04
28175;SHT30;59417;44.788;10.334;2022-12-07T17:39:18;5.69;85.91
28175;SHT30;59417;44.788;10.334;2022-12-07T17:41:45;5.78;85.29
28175;SHT30;59417;44.788;10.334;2022-12-07T17:44:30;5.77;85.31
28175;SHT30;59417;44.788;10.334;2022-12-07T17:47:05;5.74;85.15
28175;SHT30;59417;44.788;10.334;2022-12-07T17:49:34;5.64;85.70
28175;SHT30;59417;44.788;10.334;2022-12-07T17:52:02;5.74;85.30
28175;SHT30;59417;44.788;10.334;2022-12-07T17:54:46;5.74;85.32
28175;SHT30;59417;44.788;10.334;2022-12-07T17:57:12;5.62;85.48
28175;SHT30;59417;44.788;10.334;2022-12-07T17:59:38;5.59;85.94
28175;SHT30;59417;44.788;10.334;2022-12-07T18:02:05;5.75;84.80
28175;SHT30;59417;44.788;10.334;2022-12-07T18:04:43;5.67;85.18